createdAt,value
2019-02-07T00:00:03.761Z,-0.33
2019-02-07T00:01:03.627Z,-0.39
2019-02-07T00:02:03.504Z,-0.37
2019-02-07T00:03:03.360Z,-0.30
2019-02-07T00:04:03.224Z,-0.36
2019-02-07T00:05:03.091Z,-0.36
2019-02-07T00:06:02.957Z,-0.29
2019-02-07T00:07:02.831Z,-0.41
2019-02-07T00:08:02.684Z,-0.39
2019-02-07T00:09:02.552Z,-0.57
2019-02-07T00:10:02.416Z,-0.55
2019-02-07T00:11:02.288Z,-0.59
2019-02-07T00:12:02.154Z,-0.52
2019-02-07T00:13:02.014Z,-0.50
2019-02-07T00:14:01.879Z,-0.47
2019-02-07T00:15:01.749Z,-0.39
2019-02-07T00:16:01.611Z,-0.41
2019-02-07T00:17:01.476Z,-0.31
2019-02-07T00:18:01.343Z,-0.37
2019-02-07T00:19:01.208Z,-0.41
2019-02-07T00:20:01.072Z,-0.30
2019-02-07T00:21:00.940Z,-0.36
2019-02-07T00:22:00.805Z,-0.30
2019-02-07T00:23:00.677Z,-0.31
2019-02-07T00:24:00.536Z,-0.31
2019-02-07T00:25:00.402Z,-0.34
2019-02-07T00:26:00.267Z,-0.33
2019-02-07T00:27:00.140Z,-0.37
2019-02-07T00:28:00.010Z,-0.39
2019-02-07T00:28:59.863Z,-0.39
2019-02-07T00:29:59.728Z,-0.36
2019-02-07T00:30:59.595Z,-0.44
2019-02-07T00:31:59.458Z,-0.37
2019-02-07T00:32:59.325Z,-0.37
2019-02-07T00:33:59.191Z,-0.34
2019-02-07T00:34:59.149Z,-0.34
2019-02-07T00:35:58.920Z,-0.39
2019-02-07T00:36:58.785Z,-0.42
2019-02-07T00:37:58.652Z,-0.30
2019-02-07T00:38:58.518Z,-0.34
2019-02-07T00:39:58.390Z,-0.37
2019-02-07T00:40:58.250Z,-0.42
2019-02-07T00:41:58.116Z,-0.41
2019-02-07T00:42:57.982Z,-0.36
2019-02-07T00:43:57.845Z,-0.42
2019-02-07T00:44:57.710Z,-0.51
2019-02-07T00:45:57.576Z,-0.50
2019-02-07T00:46:57.442Z,-0.55
2019-02-07T00:47:57.306Z,-0.51
2019-02-07T00:48:57.173Z,-0.54
2019-02-07T00:49:57.042Z,-0.55
2019-02-07T00:50:56.907Z,-0.65
2019-02-07T00:51:56.771Z,-0.51
2019-02-07T00:52:56.634Z,-0.55
2019-02-07T00:53:56.501Z,-0.60
2019-02-07T00:54:56.367Z,-0.65
2019-02-07T00:55:56.232Z,-0.62
2019-02-07T00:56:56.098Z,-0.62
2019-02-07T00:57:55.962Z,-0.55
2019-02-07T00:58:55.829Z,-0.51
2019-02-07T00:59:55.692Z,-0.55
2019-02-07T01:00:55.557Z,-0.50
2019-02-07T01:01:55.424Z,-0.51
2019-02-07T01:02:55.290Z,-0.52
2019-02-07T01:03:55.153Z,-0.60
2019-02-07T01:04:55.020Z,-0.48
2019-02-07T01:05:54.885Z,-0.59
2019-02-07T01:06:54.753Z,-0.54
2019-02-07T01:07:54.616Z,-0.51
2019-02-07T01:08:54.522Z,-0.62
2019-02-07T01:09:54.346Z,-0.69
2019-02-07T01:10:54.215Z,-0.60
2019-02-07T01:11:54.081Z,-0.54
2019-02-07T01:12:53.944Z,-0.51
2019-02-07T01:13:53.807Z,-0.50
2019-02-07T01:15:01.620Z,-0.52
2019-02-07T01:15:53.540Z,-0.54
2019-02-07T01:16:53.406Z,-0.60
2019-02-07T01:17:53.269Z,-0.65
2019-02-07T01:18:53.140Z,-0.73
2019-02-07T01:19:53.001Z,-0.75
2019-02-07T01:20:52.867Z,-0.66
2019-02-07T01:21:52.732Z,-0.77
2019-02-07T01:22:52.599Z,-0.80
2019-02-07T01:23:52.462Z,-0.80
2019-02-07T01:24:52.329Z,-0.69
2019-02-07T01:25:52.195Z,-0.69
2019-02-07T01:26:52.059Z,-0.73
2019-02-07T01:27:51.922Z,-0.63
2019-02-07T01:28:51.789Z,-0.72
2019-02-07T01:29:51.654Z,-0.57
2019-02-07T01:30:51.520Z,-0.57
2019-02-07T01:31:51.386Z,-0.52
2019-02-07T01:32:51.256Z,-0.50
2019-02-07T01:33:51.115Z,-0.51
2019-02-07T01:34:50.989Z,-0.65
2019-02-07T01:35:50.848Z,-0.60
2019-02-07T01:36:50.712Z,-0.51
2019-02-07T01:37:50.579Z,-0.55
2019-02-07T01:38:50.442Z,-0.65
2019-02-07T01:39:50.307Z,-0.48
2019-02-07T01:40:50.175Z,-0.65
2019-02-07T01:41:50.042Z,-0.60
2019-02-07T01:42:49.906Z,-0.69
2019-02-07T01:43:49.768Z,-0.62
2019-02-07T01:44:49.633Z,-0.65
2019-02-07T01:45:49.502Z,-0.69
2019-02-07T01:46:49.366Z,-0.62
2019-02-07T01:47:49.233Z,-0.63
2019-02-07T01:48:49.096Z,-0.60
2019-02-07T01:49:48.960Z,-0.70
2019-02-07T01:50:48.826Z,-0.60
2019-02-07T01:51:48.690Z,-0.63
2019-02-07T01:52:48.555Z,-0.52
2019-02-07T01:53:48.422Z,-0.51
2019-02-07T01:54:48.287Z,-0.54
2019-02-07T01:55:48.153Z,-0.42
2019-02-07T01:56:48.019Z,-0.50
2019-02-07T01:57:47.886Z,-0.47
2019-02-07T01:58:47.750Z,-0.48
2019-02-07T01:59:47.613Z,-0.50
2019-02-07T02:00:47.478Z,-0.47
2019-02-07T02:01:47.345Z,-0.47
2019-02-07T02:02:47.214Z,-0.50
2019-02-07T02:03:47.076Z,-0.50
2019-02-07T02:04:46.940Z,-0.51
2019-02-07T02:05:46.808Z,-0.50
2019-02-07T02:06:46.675Z,-0.50
2019-02-07T02:07:46.537Z,-0.45
2019-02-07T02:08:46.406Z,-0.47
2019-02-07T02:09:46.267Z,-0.47
2019-02-07T02:10:46.134Z,-0.55
2019-02-07T02:11:45.999Z,-0.50
2019-02-07T02:12:45.862Z,-0.50
2019-02-07T02:13:45.730Z,-0.47
2019-02-07T02:14:45.596Z,-0.57
2019-02-07T02:15:45.458Z,-0.55
2019-02-07T02:16:45.325Z,-0.47
2019-02-07T02:17:45.191Z,-0.57
2019-02-07T02:18:45.055Z,-0.52
2019-02-07T02:19:44.921Z,-0.52
2019-02-07T02:20:44.789Z,-0.66
2019-02-07T02:21:44.652Z,-0.63
2019-02-07T02:22:44.517Z,-0.57
2019-02-07T02:23:44.381Z,-0.63
2019-02-07T02:24:45.294Z,-0.63
2019-02-07T02:25:44.112Z,-0.63
2019-02-07T02:26:43.977Z,-0.50
2019-02-07T02:27:43.843Z,-0.57
2019-02-07T02:28:43.710Z,-0.60
2019-02-07T02:29:43.575Z,-0.65
2019-02-07T02:30:43.439Z,-0.50
2019-02-07T02:31:43.304Z,-0.60
2019-02-07T02:32:43.168Z,-0.65
2019-02-07T02:33:43.037Z,-0.54
2019-02-07T02:34:42.915Z,-0.54
2019-02-07T02:35:42.767Z,-0.60
2019-02-07T02:36:42.631Z,-0.69
2019-02-07T02:37:42.497Z,-0.72
2019-02-07T02:38:42.361Z,-0.60
2019-02-07T02:39:42.229Z,-0.52
2019-02-07T02:40:42.093Z,-0.60
2019-02-07T02:41:41.958Z,-0.65
2019-02-07T02:42:41.824Z,-0.65
2019-02-07T02:43:41.687Z,-0.62
2019-02-07T02:44:41.555Z,-0.60
2019-02-07T02:45:41.419Z,-0.70
2019-02-07T02:46:41.287Z,-0.72
2019-02-07T02:47:41.148Z,-0.70
2019-02-07T02:48:41.014Z,-0.83
2019-02-07T02:49:40.879Z,-0.75
2019-02-07T02:50:40.751Z,-0.69
2019-02-07T02:51:40.617Z,-0.70
2019-02-07T02:52:40.535Z,-0.68
2019-02-07T02:53:40.345Z,-0.59
2019-02-07T02:54:40.207Z,-0.57
2019-02-07T02:55:40.077Z,-0.68
2019-02-07T02:56:39.938Z,-0.60
2019-02-07T02:57:39.800Z,-0.66
2019-02-07T02:58:39.668Z,-0.72
2019-02-07T02:59:39.531Z,-0.68
2019-02-07T03:00:39.395Z,-0.69
2019-02-07T03:01:39.262Z,-0.73
2019-02-07T03:02:39.127Z,-0.69
2019-02-07T03:03:38.992Z,-0.72
2019-02-07T03:04:38.933Z,-0.75
2019-02-07T03:05:38.721Z,-0.66
2019-02-07T03:06:38.586Z,-0.55
2019-02-07T03:07:38.453Z,-0.51
2019-02-07T03:08:38.325Z,-0.68
2019-02-07T03:09:38.182Z,-0.63
2019-02-07T03:10:38.055Z,-0.60
2019-02-07T03:11:37.917Z,-0.70
2019-02-07T03:12:37.781Z,-0.60
2019-02-07T03:13:37.645Z,-0.66
2019-02-07T03:14:37.511Z,-0.65
2019-02-07T03:15:48.795Z,-0.52
2019-02-07T03:16:37.245Z,-0.52
2019-02-07T03:17:37.106Z,-0.68
2019-02-07T03:18:36.972Z,-0.63
2019-02-07T03:19:36.854Z,-0.60
2019-02-07T03:20:36.702Z,-0.52
2019-02-07T03:21:36.572Z,-0.51
2019-02-07T03:22:36.433Z,-0.57
2019-02-07T03:23:36.297Z,-0.51
2019-02-07T03:24:36.166Z,-0.47
2019-02-07T03:25:36.034Z,-0.44
2019-02-07T03:26:35.895Z,-0.50
2019-02-07T03:27:35.760Z,-0.39
2019-02-07T03:28:35.626Z,-0.54
2019-02-07T03:29:35.489Z,-0.52
2019-02-07T03:30:35.357Z,-0.54
2019-02-07T03:31:35.228Z,-0.52
2019-02-07T03:32:35.093Z,-0.60
2019-02-07T03:33:34.954Z,-0.65
2019-02-07T03:34:34.818Z,-0.59
2019-02-07T03:35:34.682Z,-0.65
2019-02-07T03:36:34.548Z,-0.72
2019-02-07T03:37:34.411Z,-0.65
2019-02-07T03:38:34.277Z,-0.72
2019-02-07T03:39:34.144Z,-0.75
2019-02-07T03:40:34.007Z,-0.78
2019-02-07T03:41:33.879Z,-0.86
2019-02-07T03:42:33.748Z,-0.77
2019-02-07T03:43:33.607Z,-0.65
2019-02-07T03:44:33.472Z,-0.69
2019-02-07T03:45:33.335Z,-0.63
2019-02-07T03:46:33.201Z,-0.55
2019-02-07T03:47:33.069Z,-0.60
2019-02-07T03:48:32.950Z,-0.72
2019-02-07T03:49:32.796Z,-0.69
2019-02-07T03:50:32.663Z,-0.75
2019-02-07T03:51:32.527Z,-0.89
2019-02-07T03:52:32.395Z,-0.83
2019-02-07T03:53:32.260Z,-0.75
2019-02-07T03:54:32.124Z,-0.66
2019-02-07T03:55:31.987Z,-0.68
2019-02-07T03:56:31.851Z,-0.68
2019-02-07T03:57:31.723Z,-0.63
2019-02-07T03:58:31.584Z,-0.66
2019-02-07T03:59:31.447Z,-0.65
2019-02-07T04:00:31.314Z,-0.70
2019-02-07T04:01:31.179Z,-0.70
2019-02-07T04:02:31.048Z,-0.66
2019-02-07T04:03:30.914Z,-0.73
2019-02-07T04:04:30.773Z,-0.63
2019-02-07T04:05:30.645Z,-0.72
2019-02-07T04:06:30.506Z,-0.69
2019-02-07T04:07:30.370Z,-0.68
2019-02-07T04:08:30.237Z,-0.60
2019-02-07T04:09:30.102Z,-0.70
2019-02-07T04:10:29.970Z,-0.63
2019-02-07T04:11:29.830Z,-0.72
2019-02-07T04:12:29.696Z,-0.62
2019-02-07T04:13:29.561Z,-0.66
2019-02-07T04:14:29.428Z,-0.70
2019-02-07T04:15:29.337Z,-0.60
2019-02-07T04:16:31.977Z,-0.72
2019-02-07T04:17:29.022Z,-0.60
2019-02-07T04:18:28.888Z,-0.65
2019-02-07T04:19:28.752Z,-0.62
2019-02-07T04:20:28.617Z,-0.65
2019-02-07T04:21:28.485Z,-0.57
2019-02-07T04:22:28.349Z,-0.51
2019-02-07T04:23:28.219Z,-0.54
2019-02-07T04:24:28.078Z,-0.65
2019-02-07T04:25:27.945Z,-0.55
2019-02-07T04:26:27.808Z,-0.65
2019-02-07T04:27:27.678Z,-0.66
2019-02-07T04:28:27.563Z,-0.51
2019-02-07T04:29:27.409Z,-0.62
2019-02-07T04:30:27.270Z,-0.63
2019-02-07T04:31:27.136Z,-0.60
2019-02-07T04:32:27.001Z,-0.69
2019-02-07T04:33:26.866Z,-0.66
2019-02-07T04:34:26.733Z,-0.75
2019-02-07T04:35:26.596Z,-0.65
2019-02-07T04:36:26.463Z,-0.66
2019-02-07T04:37:26.332Z,-0.68
2019-02-07T04:38:26.193Z,-0.54
2019-02-07T04:39:26.059Z,-0.63
2019-02-07T04:40:25.925Z,-0.54
2019-02-07T04:41:25.795Z,-0.48
2019-02-07T04:42:25.656Z,-0.55
2019-02-07T04:43:25.519Z,-0.52
2019-02-07T04:44:25.402Z,-0.50
2019-02-07T04:45:25.250Z,-0.54
2019-02-07T04:46:27.101Z,-0.50
2019-02-07T04:47:24.981Z,-0.54
2019-02-07T04:48:24.844Z,-0.50
2019-02-07T04:49:24.785Z,-0.57
2019-02-07T04:50:24.577Z,-0.63
2019-02-07T04:51:24.441Z,-0.68
2019-02-07T04:52:24.305Z,-0.57
2019-02-07T04:53:24.178Z,-0.68
2019-02-07T04:54:31.197Z,-0.52
2019-02-07T04:56:16.676Z,-0.50
2019-02-07T04:57:16.534Z,-0.60
2019-02-07T04:59:09.209Z,-0.44
2019-02-07T05:00:10.040Z,-0.44
2019-02-07T05:02:02.530Z,-0.34
2019-02-07T05:03:02.395Z,-0.45
2019-02-07T05:04:55.140Z,-0.41
2019-02-07T05:05:54.899Z,-0.42
2019-02-07T05:07:47.539Z,-0.63
2019-02-07T05:08:47.401Z,-0.57
2019-02-07T05:10:40.044Z,-0.60
2019-02-07T05:11:39.904Z,-0.55
2019-02-07T05:13:32.558Z,-0.57
2019-02-07T05:14:32.419Z,-0.57
2019-02-07T05:16:25.121Z,-0.47
2019-02-07T05:17:24.977Z,-0.54
2019-02-07T05:19:17.625Z,-0.62
2019-02-07T05:20:17.483Z,-0.54
2019-02-07T05:22:10.123Z,-0.52
2019-02-07T05:23:09.979Z,-0.52
2019-02-07T05:25:02.643Z,-0.59
2019-02-07T05:26:02.502Z,-0.59
2019-02-07T05:27:55.182Z,-0.60
2019-02-07T05:28:55.010Z,-0.70
2019-02-07T05:30:47.653Z,-0.75
2019-02-07T05:31:47.528Z,-0.73
2019-02-07T05:33:40.173Z,-0.70
2019-02-07T05:34:40.034Z,-0.63
2019-02-07T05:36:32.675Z,-0.69
2019-02-07T05:37:32.532Z,-0.60
2019-02-07T05:39:26.050Z,-0.57
2019-02-07T05:40:25.924Z,-0.62
2019-02-07T05:42:18.589Z,-0.59
2019-02-07T05:43:18.412Z,-0.69
2019-02-07T05:45:11.125Z,-0.65
2019-02-07T05:46:10.959Z,-0.73
2019-02-07T05:48:03.599Z,-0.68
2019-02-07T05:49:03.453Z,-0.51
2019-02-07T05:50:56.135Z,-0.42
2019-02-07T05:51:55.960Z,-0.42
2019-02-07T05:53:48.774Z,-0.47
2019-02-07T05:54:48.463Z,-0.39
2019-02-07T05:56:41.104Z,-0.45
2019-02-07T05:57:40.967Z,-0.44
2019-02-07T05:59:34.450Z,-0.50
2019-02-07T06:00:34.308Z,-0.52
2019-02-07T06:02:26.957Z,-0.54
2019-02-07T06:03:26.808Z,-0.51
2019-02-07T06:05:19.454Z,-0.57
2019-02-07T06:06:19.315Z,-0.65
2019-02-07T06:08:12.800Z,-0.66
2019-02-07T06:09:12.676Z,-0.55
2019-02-07T06:11:05.322Z,-0.57
2019-02-07T06:12:05.181Z,-0.54
2019-02-07T06:13:57.848Z,-0.52
2019-02-07T06:14:57.675Z,-0.57
2019-02-07T06:16:50.365Z,-0.70
2019-02-07T06:17:50.177Z,-0.62
2019-02-07T06:19:42.833Z,-0.54
2019-02-07T06:20:42.688Z,-0.60
2019-02-07T06:22:35.328Z,-0.68
2019-02-07T06:23:35.185Z,-0.65
2019-02-07T06:25:27.825Z,-0.45
2019-02-07T06:26:27.684Z,-0.41
2019-02-07T06:28:20.327Z,-0.36
2019-02-07T06:29:20.184Z,-0.33
2019-02-07T06:31:12.827Z,-0.39
2019-02-07T06:32:12.684Z,-0.50
2019-02-07T06:34:07.568Z,-0.44
2019-02-07T06:35:05.185Z,-0.45
2019-02-07T06:36:57.844Z,-0.42
2019-02-07T06:37:57.689Z,-0.44
2019-02-07T06:39:50.337Z,-0.48
2019-02-07T06:40:50.194Z,-0.37
2019-02-07T06:42:42.874Z,-0.42
2019-02-07T06:43:42.697Z,-0.45
2019-02-07T06:45:35.348Z,-0.42
2019-02-07T06:46:35.195Z,-0.37
2019-02-07T06:48:27.835Z,-0.47
2019-02-07T06:49:27.694Z,-0.51
2019-02-07T06:51:21.183Z,-0.37
2019-02-07T06:52:21.047Z,-0.37
2019-02-07T06:54:13.689Z,-0.29
2019-02-07T06:55:13.547Z,-0.29
2019-02-07T06:57:06.185Z,-0.24
2019-02-07T06:58:06.048Z,-0.22
2019-02-07T06:59:59.539Z,-0.19
2019-02-07T07:00:59.399Z,-0.26
2019-02-07T07:02:52.037Z,-0.29
2019-02-07T07:03:51.897Z,-0.22
2019-02-07T07:05:44.576Z,-0.27
2019-02-07T07:06:44.398Z,-0.31
2019-02-07T07:08:37.895Z,-0.16
2019-02-07T07:09:37.751Z,-0.22
2019-02-07T07:11:30.392Z,-0.19
2019-02-07T07:12:30.254Z,-0.24
2019-02-07T07:14:22.911Z,-0.13
2019-02-07T07:15:22.757Z,-0.13
2019-02-07T07:16:22.621Z,-0.08
2019-02-07T07:17:25.836Z,-0.04
2019-02-07T07:18:22.355Z,-0.05
2019-02-07T07:19:22.223Z,0.03
2019-02-07T07:20:22.082Z,0.15
2019-02-07T07:21:21.955Z,0.09
2019-02-07T07:22:21.816Z,0.10
2019-02-07T07:23:21.682Z,0.12
2019-02-07T07:24:21.546Z,0.13
2019-02-07T07:25:21.412Z,0.24
2019-02-07T07:26:21.278Z,0.15
2019-02-07T07:27:21.144Z,0.15
2019-02-07T07:28:21.009Z,0.21
2019-02-07T07:29:20.877Z,0.20
2019-02-07T07:30:20.745Z,0.10
2019-02-07T07:31:20.615Z,0.13
2019-02-07T07:32:20.474Z,0.10
2019-02-07T07:33:20.341Z,0.13
2019-02-07T07:34:20.208Z,0.06
2019-02-07T07:35:20.074Z,0.20
2019-02-07T07:36:19.940Z,0.18
2019-02-07T07:37:19.959Z,0.24
2019-02-07T07:38:19.672Z,0.30
2019-02-07T07:39:19.539Z,0.36
2019-02-07T07:40:19.404Z,0.39
2019-02-07T07:41:19.270Z,0.48
2019-02-07T07:42:19.134Z,0.52
2019-02-07T07:43:19.002Z,0.60
2019-02-07T07:44:18.872Z,0.60
2019-02-07T07:45:18.734Z,0.51
2019-02-07T07:46:18.607Z,0.52
2019-02-07T07:47:18.469Z,0.48
2019-02-07T07:48:18.333Z,0.58
2019-02-07T07:49:18.199Z,0.51
2019-02-07T07:50:18.067Z,0.60
2019-02-07T07:51:17.932Z,0.60
2019-02-07T07:52:17.812Z,0.79
2019-02-07T07:53:17.667Z,0.70
2019-02-07T07:54:17.533Z,0.75
2019-02-07T07:55:17.398Z,0.75
2019-02-07T07:56:17.265Z,0.80
2019-02-07T07:57:17.138Z,0.85
2019-02-07T07:58:16.999Z,0.86
2019-02-07T07:59:16.865Z,0.89
2019-02-07T08:00:19.000Z,0.94
2019-02-07T08:01:16.596Z,1.04
2019-02-07T08:02:16.464Z,1.03
2019-02-07T08:03:16.332Z,1.08
2019-02-07T08:04:16.201Z,1.19
2019-02-07T08:05:16.066Z,1.19
2019-02-07T08:06:15.934Z,1.28
2019-02-07T08:07:15.800Z,1.43
2019-02-07T08:08:15.667Z,1.42
2019-02-07T08:09:15.533Z,1.42
2019-02-07T08:10:15.399Z,1.43
2019-02-07T08:11:15.266Z,1.61
2019-02-07T08:12:15.135Z,1.64
2019-02-07T08:13:15.103Z,1.65
2019-02-07T08:14:14.868Z,1.65
2019-02-07T08:15:14.736Z,1.62
2019-02-07T08:16:14.602Z,1.69
2019-02-07T08:17:14.471Z,1.80
2019-02-07T08:18:14.335Z,1.87
2019-02-07T08:19:14.206Z,1.90
2019-02-07T08:20:14.072Z,1.98
2019-02-07T08:21:13.939Z,2.06
2019-02-07T08:22:13.808Z,2.22
2019-02-07T08:23:13.699Z,2.30
2019-02-07T08:24:13.542Z,2.45
2019-02-07T08:25:13.409Z,2.51
2019-02-07T08:26:13.279Z,2.59
2019-02-07T08:27:13.151Z,2.70
2019-02-07T08:28:13.020Z,2.76
2019-02-07T08:29:12.883Z,2.79
2019-02-07T08:30:12.752Z,2.88
2019-02-07T08:31:12.621Z,2.84
2019-02-07T08:32:12.489Z,2.79
2019-02-07T08:33:12.355Z,2.82
2019-02-07T08:34:12.227Z,2.76
2019-02-07T08:35:12.095Z,2.84
2019-02-07T08:36:11.962Z,3.00
2019-02-07T08:37:11.829Z,2.97
2019-02-07T08:38:11.713Z,2.97
2019-02-07T08:39:11.568Z,3.00
2019-02-07T08:40:11.439Z,3.10
2019-02-07T08:41:11.306Z,3.23
2019-02-07T08:42:11.176Z,3.23
2019-02-07T08:43:11.042Z,3.39
2019-02-07T08:44:14.055Z,3.36
2019-02-07T08:45:10.781Z,3.27
2019-02-07T08:46:10.648Z,3.40
2019-02-07T08:47:10.527Z,3.53
2019-02-07T08:48:10.389Z,3.60
2019-02-07T08:49:10.264Z,3.68
2019-02-07T08:50:10.154Z,3.78
2019-02-07T08:51:09.995Z,3.83
2019-02-07T08:52:09.864Z,3.76
2019-02-07T08:53:09.758Z,3.85
2019-02-07T08:54:09.603Z,3.67
2019-02-07T08:55:09.474Z,3.90
2019-02-07T08:56:09.342Z,3.80
2019-02-07T08:57:09.213Z,4.01
2019-02-07T08:58:09.080Z,3.85
2019-02-07T08:59:08.950Z,3.89
2019-02-07T09:00:08.820Z,3.90
2019-02-07T09:01:11.347Z,3.89
2019-02-07T09:02:08.561Z,4.07
2019-02-07T09:03:08.436Z,4.18
2019-02-07T09:04:08.299Z,4.39
2019-02-07T09:05:08.171Z,4.46
2019-02-07T09:06:08.039Z,4.59
2019-02-07T09:07:07.912Z,4.73
2019-02-07T09:08:07.778Z,4.80
2019-02-07T09:09:07.654Z,4.92
2019-02-07T09:10:07.521Z,4.98
2019-02-07T09:11:07.391Z,5.14
2019-02-07T09:12:07.266Z,5.25
2019-02-07T09:13:07.137Z,5.30
2019-02-07T09:14:07.007Z,5.52
2019-02-07T09:15:06.874Z,5.70
2019-02-07T09:16:06.742Z,5.82
2019-02-07T09:17:06.615Z,5.89
2019-02-07T09:18:11.346Z,5.91
2019-02-07T09:19:06.356Z,5.78
2019-02-07T09:20:06.227Z,5.64
2019-02-07T09:21:06.101Z,5.55
2019-02-07T09:22:05.969Z,5.50
2019-02-07T09:23:05.843Z,5.50
2019-02-07T09:24:05.713Z,5.57
2019-02-07T09:25:05.586Z,5.53
2019-02-07T09:26:05.456Z,5.60
2019-02-07T09:27:05.326Z,5.56
2019-02-07T09:28:05.198Z,5.70
2019-02-07T09:29:05.070Z,5.59
2019-02-07T09:30:04.946Z,5.57
2019-02-07T09:31:04.812Z,5.60
2019-02-07T09:32:04.683Z,5.63
2019-02-07T09:33:04.555Z,5.68
2019-02-07T09:34:04.428Z,5.73
2019-02-07T09:35:04.302Z,5.75
2019-02-07T09:36:05.596Z,5.88
2019-02-07T09:37:04.043Z,5.88
2019-02-07T09:38:03.917Z,5.85
2019-02-07T09:39:03.785Z,5.93
2019-02-07T09:40:03.656Z,5.92
2019-02-07T09:41:03.528Z,5.75
2019-02-07T09:42:03.408Z,5.92
2019-02-07T09:43:03.273Z,5.71
2019-02-07T09:44:03.146Z,5.49
2019-02-07T09:45:03.014Z,5.12
2019-02-07T09:46:02.889Z,4.91
2019-02-07T09:47:02.758Z,4.72
2019-02-07T09:48:02.633Z,4.70
2019-02-07T09:49:02.502Z,4.54
2019-02-07T09:50:02.375Z,4.58
2019-02-07T09:51:02.254Z,4.50
2019-02-07T09:52:02.118Z,4.25
2019-02-07T09:53:01.986Z,4.12
2019-02-07T09:54:01.864Z,4.15
2019-02-07T09:55:01.731Z,4.19
2019-02-07T09:56:01.599Z,4.29
2019-02-07T09:57:01.471Z,4.39
2019-02-07T09:58:01.341Z,4.40
2019-02-07T09:59:03.218Z,4.39
2019-02-07T10:00:01.118Z,4.54
2019-02-07T10:01:00.960Z,4.65
2019-02-07T10:02:00.826Z,4.65
2019-02-07T10:03:00.697Z,4.75
2019-02-07T10:04:00.567Z,4.77
2019-02-07T10:05:00.439Z,4.94
2019-02-07T10:06:00.311Z,4.98
2019-02-07T10:07:00.178Z,4.96
2019-02-07T10:08:00.051Z,4.94
2019-02-07T10:08:59.920Z,4.89
2019-02-07T10:09:59.793Z,4.94
2019-02-07T10:10:59.665Z,4.98
2019-02-07T10:11:59.546Z,5.05
2019-02-07T10:12:59.409Z,5.12
2019-02-07T10:13:59.277Z,5.12
2019-02-07T10:14:59.148Z,5.14
2019-02-07T10:15:59.019Z,5.12
2019-02-07T10:16:58.890Z,5.16
2019-02-07T10:17:58.761Z,5.19
2019-02-07T10:18:58.632Z,5.23
2019-02-07T10:19:58.501Z,5.30
2019-02-07T10:20:58.377Z,5.38
2019-02-07T10:21:58.246Z,5.48
2019-02-07T10:22:58.115Z,5.55
2019-02-07T10:23:57.988Z,5.53
2019-02-07T10:24:57.859Z,5.68
2019-02-07T10:25:57.730Z,5.59
2019-02-07T10:26:57.602Z,5.73
2019-02-07T10:27:57.472Z,5.68
2019-02-07T10:28:57.347Z,5.91
2019-02-07T10:29:57.216Z,6.10
2019-02-07T10:30:57.086Z,6.36
2019-02-07T10:31:56.957Z,6.53
2019-02-07T10:32:56.831Z,6.61
2019-02-07T10:33:56.703Z,6.51
2019-02-07T10:34:56.575Z,6.56
2019-02-07T10:35:56.447Z,6.61
2019-02-07T10:36:56.319Z,6.61
2019-02-07T10:37:56.190Z,6.71
2019-02-07T10:38:56.063Z,6.76
2019-02-07T10:39:55.937Z,7.09
2019-02-07T10:40:55.805Z,7.37
2019-02-07T10:41:55.677Z,7.31
2019-02-07T10:42:55.555Z,7.44
2019-02-07T10:43:55.422Z,7.59
2019-02-07T10:44:55.296Z,7.69
2019-02-07T10:45:55.169Z,7.63
2019-02-07T10:46:55.041Z,7.66
2019-02-07T10:47:54.915Z,7.45
2019-02-07T10:48:54.786Z,7.45
2019-02-07T10:49:59.353Z,7.44
2019-02-07T10:50:54.533Z,7.50
2019-02-07T10:51:54.403Z,7.47
2019-02-07T10:52:54.278Z,7.41
2019-02-07T10:53:54.151Z,7.60
2019-02-07T10:54:54.023Z,7.59
2019-02-07T10:55:53.896Z,7.74
2019-02-07T10:56:53.771Z,7.59
2019-02-07T10:57:53.645Z,7.66
2019-02-07T10:58:53.515Z,7.81
2019-02-07T10:59:53.387Z,7.89
2019-02-07T11:00:53.261Z,7.85
2019-02-07T11:01:53.138Z,8.04
2019-02-07T11:02:53.022Z,8.11
2019-02-07T11:03:52.879Z,8.12
2019-02-07T11:04:52.754Z,8.21
2019-02-07T11:05:54.568Z,8.26
2019-02-07T11:06:52.501Z,8.51
2019-02-07T11:07:52.375Z,8.51
2019-02-07T11:08:52.247Z,8.54
2019-02-07T11:09:52.119Z,8.50
2019-02-07T11:10:52.007Z,8.62
2019-02-07T11:11:51.870Z,8.54
2019-02-07T11:12:51.743Z,8.55
2019-02-07T11:13:51.614Z,8.40
2019-02-07T11:14:51.490Z,8.22
2019-02-07T11:15:51.360Z,8.29
2019-02-07T11:16:51.234Z,8.15
2019-02-07T11:17:51.110Z,8.22
2019-02-07T11:18:55.664Z,8.22
2019-02-07T11:19:50.855Z,8.12
2019-02-07T11:20:50.731Z,8.02
2019-02-07T11:21:50.603Z,7.97
2019-02-07T11:22:50.479Z,7.90
2019-02-07T11:23:50.351Z,7.75
2019-02-07T11:24:50.221Z,7.74
2019-02-07T11:25:50.095Z,7.71
2019-02-07T11:26:49.972Z,7.59
2019-02-07T11:27:49.843Z,7.71
2019-02-07T11:28:49.720Z,7.58
2019-02-07T11:29:49.593Z,7.67
2019-02-07T11:30:49.465Z,7.74
2019-02-07T11:31:49.339Z,7.79
2019-02-07T11:32:49.212Z,7.84
2019-02-07T11:33:49.089Z,7.92
2019-02-07T11:34:48.961Z,7.82
2019-02-07T11:35:48.833Z,7.89
2019-02-07T11:36:54.194Z,7.85
2019-02-07T11:37:48.582Z,7.89
2019-02-07T11:38:48.452Z,7.74
2019-02-07T11:39:48.326Z,7.62
2019-02-07T11:40:48.200Z,7.50
2019-02-07T11:41:48.075Z,7.35
2019-02-07T11:42:47.948Z,7.49
2019-02-07T11:43:47.819Z,7.58
2019-02-07T11:44:50.525Z,7.63
2019-02-07T11:45:47.565Z,7.66
2019-02-07T11:46:48.927Z,7.82
2019-02-07T11:47:47.396Z,7.85
2019-02-07T11:48:47.185Z,7.81
2019-02-07T11:49:47.060Z,8.02
2019-02-07T11:50:46.932Z,7.92
2019-02-07T11:51:46.805Z,8.00
2019-02-07T11:52:46.679Z,8.04
2019-02-07T11:53:46.599Z,8.15
2019-02-07T11:54:46.425Z,8.28
2019-02-07T11:55:46.297Z,8.30
2019-02-07T11:56:46.173Z,8.26
2019-02-07T11:57:46.044Z,8.21
2019-02-07T11:58:45.920Z,8.15
2019-02-07T11:59:45.791Z,7.97
2019-02-07T12:00:45.666Z,7.84
2019-02-07T12:01:45.539Z,7.84
2019-02-07T12:02:45.412Z,7.84
2019-02-07T12:03:45.285Z,7.59
2019-02-07T12:04:45.160Z,7.74
2019-02-07T12:05:45.033Z,7.85
2019-02-07T12:06:44.908Z,7.75
2019-02-07T12:07:44.777Z,7.71
2019-02-07T12:08:44.654Z,7.63
2019-02-07T12:09:44.556Z,7.81
2019-02-07T12:10:44.413Z,7.87
2019-02-07T12:11:44.273Z,7.87
2019-02-07T12:12:44.147Z,7.79
2019-02-07T12:13:44.021Z,7.66
2019-02-07T12:14:43.893Z,7.52
2019-02-07T12:15:43.767Z,7.59
2019-02-07T12:16:43.643Z,7.56
2019-02-07T12:17:43.516Z,7.38
2019-02-07T12:18:43.386Z,7.37
2019-02-07T12:19:43.259Z,7.42
2019-02-07T12:20:43.135Z,7.38
2019-02-07T12:21:43.006Z,7.23
2019-02-07T12:22:42.881Z,7.38
2019-02-07T12:23:42.752Z,7.37
2019-02-07T12:24:42.625Z,7.47
2019-02-07T12:25:42.498Z,7.59
2019-02-07T12:26:42.374Z,7.37
2019-02-07T12:27:42.244Z,7.40
2019-02-07T12:28:42.117Z,7.29
2019-02-07T12:29:41.994Z,7.29
2019-02-07T12:30:41.867Z,7.35
2019-02-07T12:31:41.735Z,7.45
2019-02-07T12:32:41.610Z,7.55
2019-02-07T12:33:41.484Z,7.47
2019-02-07T12:34:41.357Z,7.44
2019-02-07T12:35:41.233Z,7.45
2019-02-07T12:36:41.102Z,7.59
2019-02-07T12:37:40.975Z,7.52
2019-02-07T12:38:40.849Z,7.58
2019-02-07T12:39:40.724Z,7.59
2019-02-07T12:40:40.594Z,7.23
2019-02-07T12:41:40.469Z,6.76
2019-02-07T12:42:40.342Z,6.69
2019-02-07T12:43:40.212Z,6.48
2019-02-07T12:44:40.087Z,6.48
2019-02-07T12:45:39.960Z,6.36
2019-02-07T12:46:39.834Z,6.33
2019-02-07T12:47:39.704Z,6.26
2019-02-07T12:48:39.577Z,6.07
2019-02-07T12:49:39.452Z,6.30
2019-02-07T12:50:39.324Z,6.38
2019-02-07T12:51:39.194Z,6.46
2019-02-07T12:52:39.071Z,6.47
2019-02-07T12:53:38.940Z,6.50
2019-02-07T12:54:38.811Z,6.51
2019-02-07T12:55:38.685Z,6.50
2019-02-07T12:56:38.558Z,6.54
2019-02-07T12:57:38.429Z,6.71
2019-02-07T12:58:38.303Z,6.71
2019-02-07T12:59:38.174Z,6.76
2019-02-07T13:00:38.046Z,7.02
2019-02-07T13:01:37.918Z,6.98
2019-02-07T13:02:37.792Z,7.07
2019-02-07T13:03:37.664Z,7.16
2019-02-07T13:04:37.535Z,7.09
2019-02-07T13:05:37.413Z,6.87
2019-02-07T13:06:37.281Z,6.72
2019-02-07T13:07:37.152Z,6.79
2019-02-07T13:08:37.023Z,6.71
2019-02-07T13:09:36.901Z,6.65
2019-02-07T13:10:36.772Z,6.63
2019-02-07T13:11:36.660Z,6.50
2019-02-07T13:12:36.525Z,6.53
2019-02-07T13:13:36.389Z,6.53
2019-02-07T13:14:36.273Z,6.50
2019-02-07T13:15:36.132Z,6.58
2019-02-07T13:16:36.044Z,6.63
2019-02-07T13:17:35.875Z,6.63
2019-02-07T13:18:35.783Z,6.63
2019-02-07T13:19:40.563Z,6.79
2019-02-07T13:20:35.495Z,6.76
2019-02-07T13:21:35.362Z,6.72
2019-02-07T13:22:35.282Z,6.71
2019-02-07T13:23:35.133Z,6.63
2019-02-07T13:24:34.986Z,6.32
2019-02-07T13:25:34.850Z,6.01
2019-02-07T13:26:34.738Z,5.92
2019-02-07T13:27:34.621Z,5.63
2019-02-07T13:28:34.496Z,5.60
2019-02-07T13:29:34.385Z,5.56
2019-02-07T13:30:34.228Z,5.59
2019-02-07T13:31:34.086Z,5.73
2019-02-07T13:32:33.968Z,5.70
2019-02-07T13:33:33.873Z,5.82
2019-02-07T13:34:33.697Z,5.74
2019-02-07T13:35:33.589Z,5.75
2019-02-07T13:36:33.460Z,5.77
2019-02-07T13:37:34.651Z,5.86
2019-02-07T13:38:33.182Z,6.07
2019-02-07T13:39:33.054Z,6.07
2019-02-07T13:40:32.924Z,6.11
2019-02-07T13:41:32.797Z,6.18
2019-02-07T13:42:32.669Z,6.26
2019-02-07T13:43:32.540Z,6.19
2019-02-07T13:44:32.410Z,6.03
2019-02-07T13:45:32.286Z,5.74
2019-02-07T13:46:32.156Z,5.63